Time;durP1;ratioP1;P1;durP2;ratioP2;P2;SDS_P1;SDS_P2;PMS_P1;PMS_P2;Temp;Humidity;BMP_temperature;BMP_pressure;BME280_temperature;BME280_humidity;BME280_pressure;Samples;Min_cycle;Max_cycle;Signal;HPM_P1;HPM_P2
2023/11/26 00:01:48;;;;;;;3.63;2.15;;;;;;;;;;5114010;28;20023;-71
2023/11/26 00:04:34;;;;;;;3.22;2.30;;;;;;;;;;5100494;28;20070;-70
2023/11/26 00:07:19;;;;;;;3.47;2.40;;;;;;;;;;5113414;28;20349;-71
2023/11/26 00:10:06;;;;;;;5.57;2.70;;;;;;;;;;5113435;28;20024;-72
2023/11/26 00:12:52;;;;;;;3.95;2.30;;;;;;;;;;5114065;28;20038;-72
2023/11/26 00:15:38;;;;;;;2.75;2.00;;;;;;;;;;5113460;28;20062;-71
2023/11/26 00:18:28;;;;;;;3.25;2.30;;;;;;;;;;5113495;28;20130;-71
2023/11/26 00:21:13;;;;;;;3.15;2.10;;;;;;;;;;5112819;28;20161;-70
2023/11/26 00:23:59;;;;;;;3.58;2.05;;;;;;;;;;5114170;28;20031;-71
2023/11/26 00:26:45;;;;;;;2.83;2.10;;;;;;;;;;5113840;28;20027;-70
2023/11/26 00:29:40;;;;;;;2.78;2.17;;;;;;;;;;5114436;28;20027;-71
2023/11/26 00:32:26;;;;;;;2.38;1.83;;;;;;;;;;5114366;28;20411;-70
2023/11/26 00:35:12;;;;;;;2.70;2.00;;;;;;;;;;5113529;28;20051;-70
2023/11/26 00:37:58;;;;;;;3.20;2.20;;;;;;;;;;5117452;28;20359;-71
2023/11/26 00:40:43;;;;;;;2.13;1.88;;;;;;;;;;5117576;28;20024;-70
2023/11/26 00:43:29;;;;;;;3.45;2.13;;;;;;;;;;5118688;27;20027;-70
2023/11/26 00:46:15;;;;;;;3.97;2.20;;;;;;;;;;5103728;28;20019;-70
2023/11/26 00:49:05;;;;;;;2.85;2.10;;;;;;;;;;5118880;28;20343;-70
2023/11/26 00:51:51;;;;;;;3.22;2.13;;;;;;;;;;5118298;28;20055;-70
2023/11/26 00:54:37;;;;;;;2.75;2.10;;;;;;;;;;5118738;28;20028;-71
2023/11/26 00:57:23;;;;;;;2.53;2.00;;;;;;;;;;5117698;28;20030;-71
2023/11/26 01:00:12;;;;;;;3.13;2.20;;;;;;;;;;5118115;28;20462;-71
2023/11/26 01:02:58;;;;;;;2.83;2.05;;;;;;;;;;5102983;28;20039;-70
2023/11/26 01:05:43;;;;;;;2.63;2.13;;;;;;;;;;5117431;28;20012;-71
2023/11/26 01:08:29;;;;;;;2.40;2.00;;;;;;;;;;5102831;28;20035;-72
2023/11/26 01:11:14;;;;;;;3.05;1.95;;;;;;;;;;5116958;28;20034;-70
2023/11/26 01:14:00;;;;;;;3.42;2.47;;;;;;;;;;5118384;28;20396;-70
2023/11/26 01:16:46;;;;;;;3.33;2.33;;;;;;;;;;5117450;28;20337;-71
2023/11/26 01:19:31;;;;;;;3.97;2.42;;;;;;;;;;5117375;28;20363;-71
2023/11/26 01:22:17;;;;;;;3.97;2.67;;;;;;;;;;5117184;28;20083;-71
2023/11/26 01:25:03;;;;;;;5.38;2.80;;;;;;;;;;5117344;28;20077;-71
2023/11/26 01:27:48;;;;;;;3.38;2.47;;;;;;;;;;5118830;28;20034;-71
2023/11/26 01:30:34;;;;;;;3.80;2.88;;;;;;;;;;5118109;28;20016;-72
2023/11/26 01:33:20;;;;;;;4.07;2.95;;;;;;;;;;5117186;28;20038;-71
2023/11/26 01:36:07;;;;;;;5.55;2.78;;;;;;;;;;5117619;28;20440;-71
2023/11/26 01:38:53;;;;;;;4.20;2.85;;;;;;;;;;5118585;28;20035;-71
2023/11/26 01:41:38;;;;;;;4.32;2.63;;;;;;;;;;5116562;28;20033;-70
2023/11/26 01:44:24;;;;;;;3.67;2.50;;;;;;;;;;5102914;28;20439;-70
2023/11/26 01:47:09;;;;;;;3.90;2.20;;;;;;;;;;5117617;28;20027;-69
2023/11/26 01:49:55;;;;;;;4.43;2.70;;;;;;;;;;5117638;28;20011;-70
2023/11/26 01:52:42;;;;;;;3.70;2.60;;;;;;;;;;5103013;28;20020;-69
2023/11/26 01:55:27;;;;;;;3.40;2.60;;;;;;;;;;5117005;28;20016;-68
2023/11/26 01:58:13;;;;;;;2.70;2.15;;;;;;;;;;5116946;28;20023;-68
2023/11/26 02:00:58;;;;;;;3.88;2.50;;;;;;;;;;5116181;28;20031;-69
2023/11/26 02:03:44;;;;;;;3.13;2.38;;;;;;;;;;5116842;28;20062;-68
2023/11/26 02:06:30;;;;;;;3.58;2.40;;;;;;;;;;5117441;28;20024;-69
2023/11/26 02:09:16;;;;;;;4.22;2.83;;;;;;;;;;5117254;28;20012;-69
2023/11/26 02:12:06;;;;;;;3.38;2.60;;;;;;;;;;5117736;28;20028;-69
2023/11/26 02:14:52;;;;;;;4.25;2.70;;;;;;;;;;5117118;28;20089;-70
2023/11/26 02:17:37;;;;;;;3.65;2.40;;;;;;;;;;5101852;28;20049;-69
2023/11/26 02:20:23;;;;;;;3.25;2.10;;;;;;;;;;5117373;28;20502;-69
2023/11/26 02:23:09;;;;;;;2.75;1.80;;;;;;;;;;5116928;28;20398;-68
2023/11/26 02:25:54;;;;;;;2.72;1.90;;;;;;;;;;5117810;28;20015;-69
2023/11/26 02:28:43;;;;;;;2.30;1.73;;;;;;;;;;5117067;28;20047;-69
2023/11/26 02:31:29;;;;;;;4.07;1.70;;;;;;;;;;5116077;28;20016;-69
2023/11/26 02:34:14;;;;;;;2.88;1.90;;;;;;;;;;5116844;28;20027;-69
2023/11/26 02:37:00;;;;;;;3.20;1.92;;;;;;;;;;5115672;28;20015;-68
2023/11/26 02:39:46;;;;;;;1.95;1.73;;;;;;;;;;5102437;28;20080;-69
2023/11/26 02:42:32;;;;;;;2.53;1.88;;;;;;;;;;5101232;28;20023;-69
2023/11/26 02:45:18;;;;;;;2.08;1.85;;;;;;;;;;5116532;28;20084;-69
2023/11/26 02:48:03;;;;;;;3.55;2.10;;;;;;;;;;5116748;28;20026;-69
2023/11/26 02:50:49;;;;;;;4.30;1.92;;;;;;;;;;5115555;28;20051;-69
2023/11/26 02:53:35;;;;;;;4.07;1.67;;;;;;;;;;5115535;28;20387;-69
2023/11/26 02:56:20;;;;;;;2.80;1.80;;;;;;;;;;5115351;28;20023;-70
2023/11/26 02:59:06;;;;;;;2.70;1.88;;;;;;;;;;5115901;28;20111;-70
2023/11/26 03:01:58;;;;;;;2.75;1.90;;;;;;;;;;5116160;28;20034;-69
2023/11/26 03:04:47;;;;;;;4.88;3.00;;;;;;;;;;5101139;28;20395;-69
2023/11/26 03:07:34;;;;;;;3.22;2.40;;;;;;;;;;5116103;28;20077;-69
2023/11/26 03:13:23;;;;;;;4.05;2.90;;;;;;;;;;5115889;28;20023;-69
2023/11/26 03:16:11;;;;;;;5.00;3.17;;;;;;;;;;5116647;28;20032;-69
2023/11/26 03:18:57;;;;;;;6.57;3.25;;;;;;;;;;5115012;28;20436;-70
2023/11/26 03:21:47;;;;;;;5.50;3.40;;;;;;;;;;5115494;28;20039;-69
2023/11/26 03:24:33;;;;;;;6.38;3.13;;;;;;;;;;5100704;28;20022;-69
2023/11/26 03:27:19;;;;;;;5.03;3.50;;;;;;;;;;5115843;28;20023;-68
2023/11/26 03:30:07;;;;;;;4.88;3.45;;;;;;;;;;5100353;28;20035;-68
2023/11/26 03:32:57;;;;;;;5.00;2.88;;;;;;;;;;5115565;28;20039;-68
2023/11/26 03:35:46;;;;;;;4.30;2.90;;;;;;;;;;5115109;28;20107;-68
2023/11/26 03:38:32;;;;;;;3.78;3.00;;;;;;;;;;5114295;28;20046;-68
2023/11/26 03:41:18;;;;;;;4.53;2.92;;;;;;;;;;5100619;28;20020;-68
2023/11/26 03:44:04;;;;;;;4.45;3.08;;;;;;;;;;5115104;28;20495;-68
2023/11/26 03:46:51;;;;;;;4.20;3.08;;;;;;;;;;5115211;28;20062;-68
2023/11/26 03:49:37;;;;;;;4.18;2.60;;;;;;;;;;5114887;28;20066;-68
2023/11/26 03:52:23;;;;;;;4.05;2.38;;;;;;;;;;5114956;28;20423;-69
2023/11/26 03:55:09;;;;;;;3.03;2.20;;;;;;;;;;5115364;28;20023;-68
2023/11/26 03:57:55;;;;;;;2.70;2.25;;;;;;;;;;5114627;28;20459;-68
2023/11/26 04:00:40;;;;;;;5.63;3.88;;;;;;;;;;5115308;28;20028;-68
2023/11/26 04:03:26;;;;;;;2.80;2.47;;;;;;;;;;5113939;28;20070;-68
2023/11/26 04:06:11;;;;;;;4.68;2.70;;;;;;;;;;5100536;28;20428;-68
2023/11/26 04:08:58;;;;;;;6.22;3.58;;;;;;;;;;5115325;28;20175;-69
2023/11/26 04:11:44;;;;;;;6.97;4.22;;;;;;;;;;5118897;28;20095;-68
2023/11/26 04:14:34;;;;;;;7.93;3.70;;;;;;;;;;5119448;28;20363;-69
2023/11/26 04:17:21;;;;;;;6.50;3.60;;;;;;;;;;5105613;27;20047;-68
2023/11/26 04:20:08;;;;;;;5.50;3.80;;;;;;;;;;5119511;28;20427;-69
2023/11/26 04:22:53;;;;;;;4.95;3.20;;;;;;;;;;5118808;28;20034;-68
2023/11/26 04:25:39;;;;;;;4.38;3.10;;;;;;;;;;5118377;28;20332;-69
2023/11/26 04:28:25;;;;;;;6.10;4.70;;;;;;;;;;5119376;28;20436;-69
2023/11/26 04:31:10;;;;;;;6.20;4.82;;;;;;;;;;5118796;28;20047;-69
2023/11/26 04:33:56;;;;;;;5.35;4.20;;;;;;;;;;5104046;28;20470;-68
2023/11/26 04:36:41;;;;;;;3.60;3.20;;;;;;;;;;5119879;27;20035;-68
2023/11/26 04:39:27;;;;;;;3.55;2.95;;;;;;;;;;5117552;28;20050;-68
2023/11/26 04:42:12;;;;;;;4.38;3.03;;;;;;;;;;5118229;28;20016;-68
2023/11/26 04:44:58;;;;;;;3.08;2.40;;;;;;;;;;5104271;28;20460;-67
2023/11/26 04:47:44;;;;;;;2.63;1.80;;;;;;;;;;5117956;28;20023;-68
2023/11/26 04:50:29;;;;;;;4.13;2.85;;;;;;;;;;5118271;28;20072;-68
2023/11/26 04:53:16;;;;;;;3.35;2.38;;;;;;;;;;5118820;28;20133;-68
2023/11/26 04:56:03;;;;;;;4.00;2.75;;;;;;;;;;5117236;28;20015;-68
2023/11/26 04:58:48;;;;;;;4.68;3.67;;;;;;;;;;5118001;28;20028;-68
2023/11/26 05:01:35;;;;;;;4.57;3.30;;;;;;;;;;5118571;28;20015;-68
2023/11/26 05:04:21;;;;;;;4.15;2.88;;;;;;;;;;5117855;28;20030;-68
2023/11/26 05:07:08;;;;;;;3.75;2.40;;;;;;;;;;5118096;28;20016;-68
2023/11/26 05:09:55;;;;;;;3.60;2.53;;;;;;;;;;5117868;28;20077;-71
2023/11/26 05:12:40;;;;;;;2.88;2.22;;;;;;;;;;5118737;28;20032;-69
2023/11/26 05:15:26;;;;;;;2.72;2.40;;;;;;;;;;5118317;28;20440;-68
2023/11/26 05:18:12;;;;;;;3.58;2.65;;;;;;;;;;5117095;28;20066;-69
2023/11/26 05:20:57;;;;;;;4.00;2.70;;;;;;;;;;5118226;28;20012;-69
2023/11/26 05:23:43;;;;;;;3.35;2.65;;;;;;;;;;5118069;28;20495;-69
2023/11/26 05:26:29;;;;;;;4.40;3.05;;;;;;;;;;5118003;28;20106;-68
2023/11/26 05:29:14;;;;;;;4.22;3.03;;;;;;;;;;5117895;28;20080;-68
2023/11/26 05:32:00;;;;;;;4.32;3.10;;;;;;;;;;5117319;28;20030;-68
2023/11/26 05:34:45;;;;;;;5.25;3.05;;;;;;;;;;5117124;28;20020;-68
2023/11/26 05:37:31;;;;;;;4.10;3.00;;;;;;;;;;5117363;28;20098;-68
2023/11/26 05:40:17;;;;;;;4.28;2.90;;;;;;;;;;5117284;28;20348;-68
2023/11/26 05:43:02;;;;;;;4.32;3.33;;;;;;;;;;5102489;28;20104;-69
2023/11/26 05:45:48;;;;;;;5.50;3.70;;;;;;;;;;5116971;28;20026;-68
2023/11/26 05:48:34;;;;;;;7.63;4.60;;;;;;;;;;5116711;28;20011;-68
2023/11/26 05:51:20;;;;;;;8.65;5.75;;;;;;;;;;5117161;28;20039;-69
2023/11/26 05:54:06;;;;;;;7.32;4.68;;;;;;;;;;5117136;28;20043;-67
2023/11/26 05:56:52;;;;;;;6.45;4.35;;;;;;;;;;5117237;28;20033;-69
2023/11/26 05:59:37;;;;;;;6.75;4.40;;;;;;;;;;5103030;28;20019;-69
2023/11/26 06:02:23;;;;;;;5.50;3.83;;;;;;;;;;5118127;27;20399;-68
2023/11/26 06:05:09;;;;;;;4.65;3.45;;;;;;;;;;5116997;28;20046;-68
2023/11/26 06:07:54;;;;;;;4.00;3.10;;;;;;;;;;5102109;28;20062;-69
2023/11/26 06:10:40;;;;;;;3.30;2.70;;;;;;;;;;5118001;27;20081;-69
2023/11/26 06:13:27;;;;;;;6.45;3.92;;;;;;;;;;5116596;28;20452;-68
2023/11/26 06:16:12;;;;;;;7.97;4.78;;;;;;;;;;5101377;28;20118;-68
2023/11/26 06:18:58;;;;;;;5.43;3.92;;;;;;;;;;5101762;28;20024;-68
2023/11/26 06:21:43;;;;;;;6.15;4.28;;;;;;;;;;5116045;28;20050;-68
2023/11/26 06:24:31;;;;;;;6.05;3.88;;;;;;;;;;5116987;28;20011;-68
2023/11/26 06:27:16;;;;;;;4.60;3.15;;;;;;;;;;5116107;28;20019;-67
2023/11/26 06:30:02;;;;;;;3.72;2.80;;;;;;;;;;5116319;28;20356;-69
2023/11/26 06:32:48;;;;;;;4.50;3.50;;;;;;;;;;5101193;28;20039;-69
2023/11/26 06:35:34;;;;;;;7.57;4.57;;;;;;;;;;5100919;28;20034;-68
2023/11/26 06:38:20;;;;;;;5.55;3.65;;;;;;;;;;5116720;28;20019;-69
2023/11/26 06:41:06;;;;;;;3.63;2.72;;;;;;;;;;5115466;28;20028;-68
2023/11/26 06:43:53;;;;;;;5.10;2.97;;;;;;;;;;5116046;28;20038;-69
2023/11/26 06:46:39;;;;;;;5.25;3.63;;;;;;;;;;5115678;28;20031;-69
2023/11/26 06:49:24;;;;;;;5.53;3.65;;;;;;;;;;5116920;27;20016;-70
2023/11/26 06:52:10;;;;;;;4.38;3.30;;;;;;;;;;5081887;28;20048;-70
2023/11/26 06:54:57;;;;;;;6.20;3.90;;;;;;;;;;5095802;28;20024;-71
2023/11/26 06:57:42;;;;;;;5.55;3.78;;;;;;;;;;5095262;28;20024;-71
2023/11/26 07:00:30;;;;;;;7.15;4.57;;;;;;;;;;5094460;28;20047;-71
2023/11/26 07:03:16;;;;;;;5.35;3.75;;;;;;;;;;5095153;28;20020;-71
2023/11/26 07:06:04;;;;;;;6.25;3.60;;;;;;;;;;5094389;28;20474;-70
2023/11/26 07:08:50;;;;;;;7.13;4.10;;;;;;;;;;5095617;28;20020;-71
2023/11/26 07:11:36;;;;;;;5.97;4.00;;;;;;;;;;5095298;28;20048;-70
2023/11/26 07:14:22;;;;;;;5.35;4.07;;;;;;;;;;5096561;28;20344;-71
2023/11/26 07:17:09;;;;;;;5.72;3.58;;;;;;;;;;5094979;28;20106;-70
2023/11/26 07:19:54;;;;;;;4.60;3.30;;;;;;;;;;5095413;28;20052;-71
2023/11/26 07:22:40;;;;;;;4.78;3.33;;;;;;;;;;5095661;28;20085;-71
2023/11/26 07:25:26;;;;;;;5.82;3.80;;;;;;;;;;5095988;28;20085;-70
2023/11/26 07:28:11;;;;;;;5.43;3.65;;;;;;;;;;5095412;28;20016;-73
2023/11/26 07:30:57;;;;;;;5.22;3.55;;;;;;;;;;5095843;28;20108;-71
2023/11/26 07:33:43;;;;;;;3.90;2.97;;;;;;;;;;5093476;28;20541;-69
2023/11/26 07:36:28;;;;;;;3.92;2.95;;;;;;;;;;5094670;28;20028;-72
2023/11/26 07:39:14;;;;;;;4.15;3.20;;;;;;;;;;5095310;28;20078;-73
2023/11/26 07:41:59;;;;;;;5.53;3.35;;;;;;;;;;5080656;28;20032;-72
2023/11/26 07:44:45;;;;;;;7.97;3.42;;;;;;;;;;5094886;28;20074;-69
2023/11/26 07:47:32;;;;;;;4.85;3.20;;;;;;;;;;5093227;28;20020;-69
2023/11/26 07:50:17;;;;;;;6.43;3.60;;;;;;;;;;5084493;28;20043;-68
2023/11/26 07:53:05;;;;;;;6.15;3.30;;;;;;;;;;5100172;28;20030;-69
2023/11/26 07:55:56;;;;;;;6.15;3.80;;;;;;;;;;5115224;28;20030;-68
2023/11/26 07:58:42;;;;;;;7.00;4.32;;;;;;;;;;5099704;28;20020;-68
2023/11/26 08:01:27;;;;;;;6.07;4.03;;;;;;;;;;5100225;28;20029;-69
2023/11/26 08:04:13;;;;;;;7.07;4.47;;;;;;;;;;5115273;28;20028;-72
2023/11/26 08:07:01;;;;;;;7.32;4.45;;;;;;;;;;5114280;28;20026;-73
2023/11/26 08:09:48;;;;;;;6.18;4.32;;;;;;;;;;5115237;28;20362;-71
2023/11/26 08:12:33;;;;;;;5.30;3.70;;;;;;;;;;5100073;28;20459;-72
2023/11/26 08:15:21;;;;;;;13.48;4.80;;;;;;;;;;5114623;28;20024;-70
2023/11/26 08:18:07;;;;;;;9.10;5.15;;;;;;;;;;5114919;28;20019;-72
2023/11/26 08:20:58;;;;;;;9.32;5.55;;;;;;;;;;5099312;28;20030;-73
2023/11/26 08:23:44;;;;;;;8.13;5.35;;;;;;;;;;5114195;28;20020;-73
2023/11/26 08:26:33;;;;;;;8.05;4.65;;;;;;;;;;5114152;28;20030;-72
2023/11/26 08:29:19;;;;;;;6.88;3.83;;;;;;;;;;5112781;28;20102;-71
2023/11/26 08:32:05;;;;;;;6.20;3.90;;;;;;;;;;5113111;28;20089;-71
2023/11/26 08:34:51;;;;;;;7.28;4.00;;;;;;;;;;5113667;28;20088;-73
2023/11/26 08:37:40;;;;;;;8.00;5.03;;;;;;;;;;5114671;28;20068;-74
2023/11/26 08:40:26;;;;;;;6.90;4.65;;;;;;;;;;5114384;28;20106;-74
2023/11/26 08:43:13;;;;;;;10.30;6.47;;;;;;;;;;5114172;28;20050;-73
2023/11/26 08:46:02;;;;;;;11.50;7.45;;;;;;;;;;5112391;28;20061;-73
2023/11/26 08:48:50;;;;;;;11.38;7.30;;;;;;;;;;5114058;28;20089;-69
2023/11/26 08:51:36;;;;;;;13.48;7.53;;;;;;;;;;5098807;28;20123;-73
2023/11/26 08:54:22;;;;;;;11.70;7.85;;;;;;;;;;5098940;28;20085;-74
2023/11/26 08:57:08;;;;;;;11.70;7.68;;;;;;;;;;5115121;28;20039;-72
2023/11/26 08:59:53;;;;;;;11.23;7.40;;;;;;;;;;5117437;28;20455;-72
2023/11/26 09:02:40;;;;;;;12.38;8.40;;;;;;;;;;5118246;28;20367;-74
2023/11/26 09:05:25;;;;;;;15.88;8.75;;;;;;;;;;5117623;28;20038;-74
2023/11/26 09:08:11;;;;;;;14.00;8.88;;;;;;;;;;5115993;28;20015;-71
2023/11/26 09:10:58;;;;;;;16.83;10.35;;;;;;;;;;5117563;28;20096;-71
2023/11/26 09:13:47;;;;;;;16.13;9.75;;;;;;;;;;5116756;28;20024;-71
2023/11/26 09:16:36;;;;;;;14.55;8.85;;;;;;;;;;5102820;28;20027;-72
2023/11/26 09:19:22;;;;;;;16.02;9.18;;;;;;;;;;5116815;28;20039;-70
2023/11/26 09:22:08;;;;;;;15.68;9.57;;;;;;;;;;5118341;27;20112;-71
2023/11/26 09:24:54;;;;;;;14.18;8.70;;;;;;;;;;5117904;28;20050;-71
2023/11/26 09:27:43;;;;;;;15.15;8.80;;;;;;;;;;5117348;28;20023;-69
2023/11/26 09:30:29;;;;;;;20.27;9.15;;;;;;;;;;5116462;28;20019;-70
2023/11/26 09:33:14;;;;;;;13.57;8.50;;;;;;;;;;5118396;27;20051;-70
2023/11/26 09:36:02;;;;;;;14.68;8.32;;;;;;;;;;5117555;28;20031;-71
2023/11/26 09:38:48;;;;;;;11.98;7.93;;;;;;;;;;5116455;28;20019;-72
2023/11/26 09:41:34;;;;;;;13.85;8.75;;;;;;;;;;5116528;28;20020;-72
2023/11/26 09:44:19;;;;;;;11.63;7.40;;;;;;;;;;5117331;28;20059;-73
2023/11/26 09:47:05;;;;;;;11.68;7.53;;;;;;;;;;5118456;28;20012;-71
2023/11/26 09:49:50;;;;;;;11.15;7.38;;;;;;;;;;5116626;28;20084;-71
2023/11/26 09:52:37;;;;;;;10.65;6.82;;;;;;;;;;5115535;28;20032;-72
2023/11/26 09:55:23;;;;;;;10.43;6.50;;;;;;;;;;5117871;27;20024;-72
2023/11/26 09:58:09;;;;;;;10.65;6.38;;;;;;;;;;5116726;28;20023;-72
2023/11/26 10:00:54;;;;;;;12.18;6.55;;;;;;;;;;5102451;28;20019;-72
2023/11/26 10:04:04;;;;;;;9.27;5.88;;;;;;;;;;5101818;28;20352;-72
2023/11/26 10:06:50;;;;;;;7.90;5.30;;;;;;;;;;5117617;27;20026;-71
2023/11/26 10:09:36;;;;;;;8.90;5.32;;;;;;;;;;5115691;28;20027;-71
2023/11/26 10:12:22;;;;;;;8.82;5.00;;;;;;;;;;5116383;28;20448;-71
2023/11/26 10:15:09;;;;;;;7.57;4.82;;;;;;;;;;5117070;28;20023;-71
2023/11/26 10:17:59;;;;;;;9.68;5.22;;;;;;;;;;5116148;28;20503;-71
2023/11/26 10:20:50;;;;;;;8.70;5.10;;;;;;;;;;5117124;28;20062;-72
2023/11/26 10:23:37;;;;;;;9.57;5.03;;;;;;;;;;5101475;28;20072;-72
2023/11/26 10:26:26;;;;;;;8.32;4.75;;;;;;;;;;5102124;28;20125;-73
2023/11/26 10:29:12;;;;;;;8.63;4.60;;;;;;;;;;5102134;28;20050;-73
2023/11/26 10:32:04;;;;;;;7.70;4.80;;;;;;;;;;5101211;28;20110;-72
2023/11/26 10:34:53;;;;;;;8.35;4.72;;;;;;;;;;5115644;28;20019;-71
2023/11/26 10:37:39;;;;;;;7.03;4.80;;;;;;;;;;5101860;28;20102;-72
2023/11/26 10:40:25;;;;;;;10.75;5.38;;;;;;;;;;5102251;28;20030;-73
2023/11/26 10:43:11;;;;;;;8.15;5.38;;;;;;;;;;5116119;28;20098;-72
2023/11/26 10:45:59;;;;;;;8.40;5.10;;;;;;;;;;5116427;28;20436;-72
2023/11/26 10:48:49;;;;;;;8.77;5.13;;;;;;;;;;5115588;28;20026;-72
2023/11/26 10:51:38;;;;;;;8.13;5.35;;;;;;;;;;5115057;28;20043;-72
2023/11/26 10:54:27;;;;;;;9.18;5.50;;;;;;;;;;5102358;28;20470;-68
2023/11/26 10:57:15;;;;;;;8.68;5.10;;;;;;;;;;5115336;28;20034;-69
2023/11/26 11:00:02;;;;;;;8.57;5.18;;;;;;;;;;5115598;28;20030;-69
2023/11/26 11:02:48;;;;;;;7.75;5.40;;;;;;;;;;5101482;28;20089;-69
2023/11/26 11:05:34;;;;;;;6.50;4.75;;;;;;;;;;5115648;28;20019;-70
2023/11/26 11:08:19;;;;;;;8.93;5.15;;;;;;;;;;5114404;28;20451;-70
2023/11/26 11:11:14;;;;;;;7.38;5.05;;;;;;;;;;5115674;28;20020;-69
2023/11/26 11:14:00;;;;;;;9.23;5.00;;;;;;;;;;5100861;28;20020;-69
2023/11/26 11:16:46;;;;;;;7.30;4.30;;;;;;;;;;5114825;28;20355;-69
2023/11/26 11:19:47;;;;;;;8.43;4.75;;;;;;;;;;5113287;28;20024;-71
2023/11/26 11:22:37;;;;;;;8.13;4.78;;;;;;;;;;5116339;28;20481;-73
2023/11/26 11:25:25;;;;;;;7.65;4.32;;;;;;;;;;5115653;28;20046;-72
2023/11/26 11:28:11;;;;;;;7.50;4.57;;;;;;;;;;5115240;28;20016;-72
2023/11/26 11:30:56;;;;;;;8.88;5.25;;;;;;;;;;5114860;28;20016;-73
2023/11/26 11:34:00;;;;;;;8.48;5.18;;;;;;;;;;5100155;28;20085;-72
2023/11/26 11:36:52;;;;;;;10.88;5.13;;;;;;;;;;5115896;28;20034;-72
2023/11/26 11:39:46;;;;;;;8.40;4.65;;;;;;;;;;5101101;28;20600;-72
2023/11/26 11:42:32;;;;;;;8.20;4.65;;;;;;;;;;5101283;28;20443;-73
2023/11/26 11:45:27;;;;;;;7.97;4.25;;;;;;;;;;5115247;28;20039;-71
2023/11/26 11:48:32;;;;;;;6.97;4.30;;;;;;;;;;5115808;28;20019;-71
2023/11/26 11:51:31;;;;;;;8.90;4.75;;;;;;;;;;5117041;28;20048;-71
2023/11/26 11:54:28;;;;;;;8.48;4.55;;;;;;;;;;5120842;28;20051;-71
2023/11/26 11:57:15;;;;;;;8.55;4.90;;;;;;;;;;5119174;28;20037;-71
2023/11/26 12:00:04;;;;;;;8.80;5.07;;;;;;;;;;5106531;28;20118;-69
2023/11/26 12:02:49;;;;;;;6.25;4.68;;;;;;;;;;5107768;28;20031;-72
2023/11/26 12:05:35;;;;;;;8.10;4.93;;;;;;;;;;5104606;28;20094;-73
2023/11/26 12:08:22;;;;;;;13.45;6.13;;;;;;;;;;5117022;28;20061;-72
2023/11/26 12:11:11;;;;;;;7.25;4.65;;;;;;;;;;5115266;28;20058;-74
2023/11/26 12:13:56;;;;;;;8.48;5.35;;;;;;;;;;5102491;28;20030;-73
2023/11/26 12:16:42;;;;;;;7.53;4.82;;;;;;;;;;5122052;28;20019;-73
2023/11/26 12:19:34;;;;;;;11.25;4.72;;;;;;;;;;5118796;28;20032;-72
2023/11/26 12:22:20;;;;;;;8.43;4.85;;;;;;;;;;5128131;28;20324;-73
2023/11/26 12:25:07;;;;;;;9.57;4.95;;;;;;;;;;5133344;28;20110;-73
2023/11/26 12:28:05;;;;;;;7.93;5.13;;;;;;;;;;5134270;28;20087;-72
2023/11/26 12:30:55;;;;;;;7.88;5.13;;;;;;;;;;5121082;27;20019;-71
2023/11/26 12:33:44;;;;;;;7.22;4.93;;;;;;;;;;5130619;27;20111;-72
2023/11/26 12:36:30;;;;;;;7.63;5.05;;;;;;;;;;5118387;28;20106;-73
2023/11/26 12:39:19;;;;;;;8.13;5.00;;;;;;;;;;5118666;28;20443;-73
2023/11/26 12:42:05;;;;;;;8.48;5.35;;;;;;;;;;5118217;28;20455;-70
2023/11/26 12:44:51;;;;;;;9.02;5.20;;;;;;;;;;5117846;28;20049;-70
2023/11/26 12:47:54;;;;;;;7.07;4.95;;;;;;;;;;5117767;28;20027;-69
2023/11/26 12:50:43;;;;;;;9.02;4.82;;;;;;;;;;5123051;27;20057;-69
2023/11/26 12:53:28;;;;;;;6.65;4.75;;;;;;;;;;5136280;27;20015;-69
2023/11/26 12:56:18;;;;;;;7.22;4.80;;;;;;;;;;5123479;27;20019;-69
2023/11/26 12:59:04;;;;;;;7.57;4.50;;;;;;;;;;5136178;27;20082;-69
2023/11/26 13:01:50;;;;;;;7.53;4.80;;;;;;;;;;5122922;27;20087;-69
2023/11/26 13:04:35;;;;;;;9.02;4.75;;;;;;;;;;5122921;27;20027;-68
2023/11/26 13:07:34;;;;;;;8.20;5.05;;;;;;;;;;5137379;27;20046;-68
2023/11/26 13:10:20;;;;;;;7.22;5.07;;;;;;;;;;5137342;27;20088;-68
2023/11/26 13:13:05;;;;;;;11.05;5.72;;;;;;;;;;5136580;27;20447;-69
2023/11/26 13:15:51;;;;;;;7.60;5.03;;;;;;;;;;5136763;27;20045;-71
2023/11/26 13:18:37;;;;;;;9.40;5.40;;;;;;;;;;5136413;27;20124;-70
2023/11/26 13:21:22;;;;;;;9.32;5.65;;;;;;;;;;5136367;27;20466;-70
2023/11/26 13:24:08;;;;;;;8.55;5.50;;;;;;;;;;5136162;27;20069;-72
2023/11/26 13:26:53;;;;;;;9.23;5.85;;;;;;;;;;5137333;27;20011;-72
2023/11/26 13:29:39;;;;;;;8.77;4.88;;;;;;;;;;5122315;27;20114;-71
2023/11/26 13:32:26;;;;;;;7.97;5.03;;;;;;;;;;5136879;27;20031;-73
2023/11/26 13:35:14;;;;;;;8.27;5.10;;;;;;;;;;5122663;27;20023;-75
2023/11/26 13:38:01;;;;;;;9.50;5.70;;;;;;;;;;5115044;27;20121;-74
2023/11/26 13:40:47;;;;;;;8.00;5.05;;;;;;;;;;5122975;27;20023;-73
2023/11/26 13:43:32;;;;;;;9.45;5.22;;;;;;;;;;5135957;27;20127;-74
2023/11/26 13:46:18;;;;;;;9.93;5.43;;;;;;;;;;5136469;27;20359;-73
2023/11/26 13:49:04;;;;;;;9.25;5.88;;;;;;;;;;5121855;27;20354;-73
2023/11/26 13:51:49;;;;;;;8.93;5.00;;;;;;;;;;5136997;27;20437;-70
2023/11/26 13:54:36;;;;;;;9.32;5.63;;;;;;;;;;5135688;27;20023;-68
2023/11/26 13:57:21;;;;;;;9.75;6.10;;;;;;;;;;5117321;27;20019;-70
2023/11/26 14:00:10;;;;;;;8.88;5.40;;;;;;;;;;5116521;28;20166;-70
2023/11/26 14:02:55;;;;;;;8.60;5.57;;;;;;;;;;5133217;27;20023;-70
2023/11/26 14:05:41;;;;;;;8.32;5.78;;;;;;;;;;5135263;27;20281;-69
2023/11/26 14:08:27;;;;;;;10.60;5.70;;;;;;;;;;5135795;27;20447;-70
2023/11/26 14:11:13;;;;;;;14.63;8.25;;;;;;;;;;5135382;27;20030;-70
2023/11/26 14:13:59;;;;;;;10.65;6.25;;;;;;;;;;5136890;27;20046;-73
2023/11/26 14:16:44;;;;;;;11.93;6.20;;;;;;;;;;5135351;27;20087;-73
2023/11/26 14:19:33;;;;;;;10.43;5.97;;;;;;;;;;5135790;27;20019;-74
2023/11/26 14:22:18;;;;;;;11.18;6.05;;;;;;;;;;5135980;27;20027;-71
2023/11/26 14:25:04;;;;;;;10.13;5.95;;;;;;;;;;5119799;27;20020;-71
2023/11/26 14:27:50;;;;;;;8.55;5.50;;;;;;;;;;5135531;27;20023;-72
2023/11/26 14:30:36;;;;;;;9.52;5.53;;;;;;;;;;5135364;27;20027;-71
2023/11/26 14:33:22;;;;;;;11.30;5.35;;;;;;;;;;5120165;27;20023;-72
2023/11/26 14:36:08;;;;;;;10.38;6.10;;;;;;;;;;5115541;28;20051;-71
2023/11/26 14:38:53;;;;;;;12.10;5.78;;;;;;;;;;5114909;28;20047;-71
2023/11/26 14:41:39;;;;;;;12.68;6.28;;;;;;;;;;5113669;28;20020;-70
2023/11/26 14:44:25;;;;;;;9.30;5.65;;;;;;;;;;5115578;28;20023;-72
2023/11/26 14:47:10;;;;;;;8.77;5.47;;;;;;;;;;5114475;28;20492;-72
2023/11/26 14:49:57;;;;;;;9.23;5.25;;;;;;;;;;5114418;28;20016;-72
2023/11/26 14:52:43;;;;;;;8.13;5.03;;;;;;;;;;5114764;28;20044;-71
2023/11/26 14:55:29;;;;;;;8.35;5.28;;;;;;;;;;5114287;28;20016;-72
2023/11/26 14:58:14;;;;;;;8.32;5.07;;;;;;;;;;5114628;28;20122;-72
2023/11/26 15:01:02;;;;;;;7.68;4.95;;;;;;;;;;5114656;28;20020;-71
2023/11/26 15:03:47;;;;;;;9.32;5.22;;;;;;;;;;5115163;28;20039;-72
2023/11/26 15:06:33;;;;;;;8.77;5.20;;;;;;;;;;5115020;28;20077;-70
2023/11/26 15:09:19;;;;;;;7.85;5.32;;;;;;;;;;5114728;28;20023;-71
2023/11/26 15:12:05;;;;;;;8.05;4.65;;;;;;;;;;5115593;28;20031;-72
2023/11/26 15:14:50;;;;;;;7.25;4.47;;;;;;;;;;5115759;28;20015;-72
2023/11/26 15:17:36;;;;;;;9.05;5.10;;;;;;;;;;5114861;28;20444;-72
2023/11/26 15:20:22;;;;;;;8.23;4.85;;;;;;;;;;5114658;28;20023;-71
2023/11/26 15:23:08;;;;;;;9.10;5.10;;;;;;;;;;5113857;28;20068;-71
2023/11/26 15:25:54;;;;;;;12.85;6.85;;;;;;;;;;5114495;28;20333;-72
2023/11/26 15:28:39;;;;;;;10.73;6.10;;;;;;;;;;5114838;28;20020;-74
2023/11/26 15:31:25;;;;;;;9.90;5.60;;;;;;;;;;5114262;28;20015;-72
2023/11/26 15:34:10;;;;;;;14.13;5.53;;;;;;;;;;5099664;28;20023;-72
2023/11/26 15:36:56;;;;;;;8.25;5.03;;;;;;;;;;5112892;28;20026;-71
2023/11/26 15:39:42;;;;;;;8.15;5.10;;;;;;;;;;5113003;28;20452;-71
2023/11/26 15:42:28;;;;;;;9.60;5.55;;;;;;;;;;5113070;28;20069;-73
2023/11/26 15:45:14;;;;;;;9.05;5.20;;;;;;;;;;5099434;28;20055;-73
2023/11/26 15:47:59;;;;;;;8.30;5.25;;;;;;;;;;5099130;28;20019;-73
2023/11/26 15:50:45;;;;;;;9.10;5.93;;;;;;;;;;5098944;28;20046;-71
2023/11/26 15:53:30;;;;;;;11.25;5.50;;;;;;;;;;5099824;28;20015;-73
2023/11/26 15:56:17;;;;;;;10.25;5.68;;;;;;;;;;5114357;28;20023;-72
2023/11/26 15:59:04;;;;;;;9.85;5.30;;;;;;;;;;5113410;28;20038;-76
2023/11/26 16:01:50;;;;;;;11.75;5.65;;;;;;;;;;5099202;28;20351;-73
2023/11/26 16:04:35;;;;;;;8.60;5.93;;;;;;;;;;5115192;28;20055;-74
2023/11/26 16:07:21;;;;;;;9.30;5.90;;;;;;;;;;5120310;28;20015;-73
2023/11/26 16:10:10;;;;;;;8.02;5.35;;;;;;;;;;5121275;28;20024;-74
2023/11/26 16:12:55;;;;;;;10.10;5.85;;;;;;;;;;5120500;28;20034;-71
2023/11/26 16:15:41;;;;;;;9.60;6.05;;;;;;;;;;5121472;28;20043;-76
2023/11/26 16:18:30;;;;;;;8.88;5.43;;;;;;;;;;5106683;28;20098;-73
2023/11/26 16:21:22;;;;;;;10.27;5.30;;;;;;;;;;5121279;28;20027;-72
2023/11/26 16:24:08;;;;;;;11.25;6.10;;;;;;;;;;5121371;28;20024;-73
2023/11/26 16:26:54;;;;;;;9.80;5.72;;;;;;;;;;5106036;28;20106;-73
2023/11/26 16:29:40;;;;;;;8.60;4.70;;;;;;;;;;5120547;28;20084;-74
2023/11/26 16:32:28;;;;;;;10.38;5.32;;;;;;;;;;5121497;28;20412;-72
2023/11/26 16:35:16;;;;;;;12.90;7.25;;;;;;;;;;5120290;28;20028;-71
2023/11/26 16:38:01;;;;;;;8.63;5.35;;;;;;;;;;5120740;28;20106;-72
2023/11/26 16:40:47;;;;;;;7.50;4.63;;;;;;;;;;5120833;28;20416;-70